SWA384 KTUL-KLAS
Flight info
| Callsign | SWA384 |
|---|---|
| Flight time | 2h 39m |
| Altitude | 32000 |
| Route | YARNS IFI KA33Y FTI J8 GUP HAHAA RKSTR4 |
| Aircraft | B38M/M-SADE2E3GHIJ4J7P2RWZ/LB1D1 |
Departure
| Time | 2026-05-04 14:32 |
|---|---|
| Airport | Tulsa International Airport (KTUL) |
Arrival
| Time | 2026-05-04 17:12 |
|---|---|
| Airport | Harry Reid International Airport (KLAS) |
| Time | Latitude | Longitude | Altitude | Speed | Heading |
|---|---|---|---|---|---|
| 2026-05-04 14:09 | 36.19225 | -95.89002 | 679 ft | 0 kts | 155° |
| 2026-05-04 14:19 | 36.19245 | -95.89016 | 667 ft | 4 kts | 134° |
| 2026-05-04 14:19 | 36.19255 | -95.89042 | 668 ft | 4 kts | 82° |
| 2026-05-04 14:19 | 36.19248 | -95.89058 | 669 ft | 1 kts | 37° |
| 2026-05-04 14:19 | 36.19246 | -95.89060 | 668 ft | 0 kts | 37° |
| 2026-05-04 14:23 | 36.19246 | -95.89059 | 670 ft | 1 kts | 37° |
| 2026-05-04 14:23 | 36.19247 | -95.89059 | 670 ft | 1 kts | 37° |
| 2026-05-04 14:24 | 36.19251 | -95.89055 | 668 ft | 2 kts | 37° |
| 2026-05-04 14:24 | 36.19294 | -95.89014 | 670 ft | 14 kts | 37° |
| 2026-05-04 14:24 | 36.19403 | -95.88918 | 669 ft | 22 kts | 30° |
| 2026-05-04 14:25 | 36.19442 | -95.88842 | 670 ft | 10 kts | 87° |
| 2026-05-04 14:25 | 36.19464 | -95.88595 | 670 ft | 11 kts | 30° |
| 2026-05-04 14:25 | 36.19501 | -95.88590 | 671 ft | 10 kts | 360° |
| 2026-05-04 14:26 | 36.19528 | -95.88590 | 672 ft | 11 kts | 358° |
| 2026-05-04 14:26 | 36.19565 | -95.88591 | 673 ft | 16 kts | 359° |
| 2026-05-04 14:26 | 36.19616 | -95.88591 | 672 ft | 21 kts | 360° |
| 2026-05-04 14:26 | 36.19676 | -95.88591 | 670 ft | 24 kts | 1° |
| 2026-05-04 14:27 | 36.19771 | -95.88572 | 670 ft | 25 kts | 15° |
| 2026-05-04 14:27 | 36.19878 | -95.88530 | 670 ft | 26 kts | 18° |
| 2026-05-04 14:27 | 36.19986 | -95.88486 | 670 ft | 27 kts | 19° |
| 2026-05-04 14:27 | 36.20101 | -95.88439 | 670 ft | 28 kts | 18° |
| 2026-05-04 14:28 | 36.20217 | -95.88393 | 670 ft | 29 kts | 15° |
| 2026-05-04 14:28 | 36.20337 | -95.88372 | 670 ft | 30 kts | 4° |
| 2026-05-04 14:28 | 36.20424 | -95.88367 | 670 ft | 31 kts | 2° |
| 2026-05-04 14:28 | 36.20508 | -95.88363 | 670 ft | 31 kts | 2° |
| 2026-05-04 14:29 | 36.20683 | -95.88353 | 670 ft | 32 kts | 3° |
| 2026-05-04 14:29 | 36.20873 | -95.88340 | 670 ft | 33 kts | 3° |
| 2026-05-04 14:30 | 36.20969 | -95.88334 | 670 ft | 34 kts | 3° |
| 2026-05-04 14:30 | 36.21064 | -95.88329 | 670 ft | 35 kts | 2° |
| 2026-05-04 14:30 | 36.21268 | -95.88316 | 670 ft | 36 kts | 3° |
| 2026-05-04 14:31 | 36.21351 | -95.88310 | 670 ft | 23 kts | 6° |
| 2026-05-04 14:31 | 36.21349 | -95.88140 | 671 ft | 11 kts | 165° |
| 2026-05-04 14:32 | 36.21243 | -95.88144 | 671 ft | 43 kts | 182° |
| 2026-05-04 14:32 | 36.20708 | -95.88179 | 670 ft | 109 kts | 183° |
| 2026-05-04 14:32 | 36.19782 | -95.88242 | 775 ft | 149 kts | 182° |
| 2026-05-04 14:32 | 36.18715 | -95.88284 | 1370 ft | 161 kts | 181° |
| 2026-05-04 14:33 | 36.17567 | -95.88273 | 2075 ft | 167 kts | 185° |
| 2026-05-04 14:33 | 36.16343 | -95.88131 | 2570 ft | 187 kts | 182° |
| 2026-05-04 14:33 | 36.14982 | -95.87942 | 3087 ft | 207 kts | 182° |
| 2026-05-04 14:33 | 36.13507 | -95.87980 | 3533 ft | 217 kts | 205° |
| 2026-05-04 14:34 | 36.12308 | -95.89112 | 4055 ft | 226 kts | 236° |
| 2026-05-04 14:34 | 36.11614 | -95.90909 | 4737 ft | 238 kts | 254° |
| 2026-05-04 14:34 | 36.11468 | -95.92992 | 5473 ft | 248 kts | 266° |
| 2026-05-04 14:34 | 36.11329 | -95.95140 | 6239 ft | 254 kts | 264° |
| 2026-05-04 14:35 | 36.11189 | -95.97331 | 7025 ft | 258 kts | 265° |
| 2026-05-04 14:35 | 36.11064 | -95.99538 | 7795 ft | 262 kts | 264° |
| 2026-05-04 14:35 | 36.10946 | -96.01783 | 8712 ft | 262 kts | 265° |
| 2026-05-04 14:35 | 36.10838 | -96.04060 | 9414 ft | 271 kts | 265° |
| 2026-05-04 14:36 | 36.10721 | -96.06435 | 10013 ft | 279 kts | 265° |
| 2026-05-04 14:36 | 36.10605 | -96.08874 | 10564 ft | 293 kts | 266° |
| 2026-05-04 14:36 | 36.10471 | -96.11472 | 10890 ft | 313 kts | 265° |
| 2026-05-04 14:36 | 36.10323 | -96.14238 | 11217 ft | 332 kts | 266° |
| 2026-05-04 14:37 | 36.10172 | -96.17142 | 11659 ft | 344 kts | 266° |
| 2026-05-04 14:37 | 36.10023 | -96.20061 | 12433 ft | 344 kts | 266° |
| 2026-05-04 14:37 | 36.09887 | -96.23043 | 13098 ft | 351 kts | 267° |
| 2026-05-04 14:37 | 36.09750 | -96.26068 | 13797 ft | 356 kts | 267° |
| 2026-05-04 14:38 | 36.09605 | -96.29146 | 14466 ft | 358 kts | 267° |
| 2026-05-04 14:38 | 36.09465 | -96.32226 | 15249 ft | 361 kts | 268° |
| 2026-05-04 14:38 | 36.09322 | -96.35334 | 15960 ft | 364 kts | 268° |
| 2026-05-04 14:38 | 36.09177 | -96.38474 | 16629 ft | 368 kts | 268° |
| 2026-05-04 14:39 | 36.09031 | -96.41644 | 17313 ft | 371 kts | 268° |
| 2026-05-04 14:39 | 36.08881 | -96.44847 | 17989 ft | 375 kts | 268° |
| 2026-05-04 14:39 | 36.08730 | -96.48073 | 18624 ft | 377 kts | 268° |
| 2026-05-04 14:40 | 36.08428 | -96.54510 | 19889 ft | 379 kts | 268° |
| 2026-05-04 14:40 | 36.08273 | -96.57774 | 20514 ft | 381 kts | 268° |
| 2026-05-04 14:40 | 36.08117 | -96.61057 | 21094 ft | 384 kts | 268° |
| 2026-05-04 14:40 | 36.07959 | -96.64357 | 21678 ft | 386 kts | 268° |
| 2026-05-04 14:41 | 36.07796 | -96.67677 | 22249 ft | 388 kts | 267° |
| 2026-05-04 14:41 | 36.07263 | -96.70967 | 22825 ft | 393 kts | 258° |
| 2026-05-04 14:41 | 36.05942 | -96.77560 | 23831 ft | 398 kts | 259° |
| 2026-05-04 14:42 | 36.04603 | -96.84215 | 24751 ft | 401 kts | 260° |
| 2026-05-04 14:42 | 36.03936 | -96.87515 | 25221 ft | 401 kts | 260° |
| 2026-05-04 14:42 | 36.03259 | -96.90862 | 25679 ft | 402 kts | 261° |
| 2026-05-04 14:43 | 36.02579 | -96.94223 | 26106 ft | 404 kts | 261° |
| 2026-05-04 14:43 | 36.01894 | -96.97598 | 26535 ft | 406 kts | 261° |
| 2026-05-04 14:43 | 36.01205 | -97.00988 | 26936 ft | 408 kts | 261° |
| 2026-05-04 14:43 | 36.00512 | -97.04394 | 27357 ft | 410 kts | 261° |
| 2026-05-04 14:44 | 35.99815 | -97.07811 | 27763 ft | 412 kts | 261° |
| 2026-05-04 14:44 | 35.99114 | -97.11245 | 28162 ft | 413 kts | 262° |
| 2026-05-04 14:44 | 35.98408 | -97.14701 | 28534 ft | 416 kts | 262° |
| 2026-05-04 14:44 | 35.97708 | -97.18117 | 28910 ft | 417 kts | 262° |
| 2026-05-04 14:45 | 35.96994 | -97.21595 | 29338 ft | 418 kts | 262° |
| 2026-05-04 14:45 | 35.96282 | -97.25061 | 29893 ft | 415 kts | 262° |
| 2026-05-04 14:45 | 35.95575 | -97.28501 | 30378 ft | 412 kts | 262° |
| 2026-05-04 14:45 | 35.94871 | -97.31914 | 30882 ft | 408 kts | 263° |
| 2026-05-04 14:46 | 35.94174 | -97.35291 | 31390 ft | 405 kts | 263° |
| 2026-05-04 14:46 | 35.93479 | -97.38650 | 31755 ft | 403 kts | 263° |
| 2026-05-04 14:46 | 35.92100 | -97.45302 | 31789 ft | 398 kts | 263° |
| 2026-05-04 14:47 | 35.90738 | -97.51862 | 31801 ft | 398 kts | 263° |
| 2026-05-04 14:47 | 35.89361 | -97.58466 | 31794 ft | 398 kts | 263° |
| 2026-05-04 14:48 | 35.87987 | -97.65038 | 31796 ft | 394 kts | 263° |
| 2026-05-04 14:48 | 35.86616 | -97.71577 | 31790 ft | 394 kts | 263° |
| 2026-05-04 14:49 | 35.85251 | -97.78069 | 31808 ft | 394 kts | 263° |
| 2026-05-04 14:49 | 35.83872 | -97.84608 | 31803 ft | 394 kts | 263° |
| 2026-05-04 14:50 | 35.82490 | -97.91144 | 31788 ft | 394 kts | 263° |
| 2026-05-04 14:50 | 35.81107 | -97.97673 | 31786 ft | 394 kts | 263° |
| 2026-05-04 14:51 | 35.80321 | -98.04201 | 31779 ft | 383 kts | 271° |
| 2026-05-04 14:51 | 35.79911 | -98.10693 | 31776 ft | 383 kts | 271° |
| 2026-05-04 14:52 | 35.79511 | -98.17232 | 31771 ft | 383 kts | 271° |
| 2026-05-04 14:52 | 35.79111 | -98.23764 | 31764 ft | 382 kts | 271° |
| 2026-05-04 14:53 | 35.78707 | -98.30298 | 31766 ft | 382 kts | 271° |
| 2026-05-04 14:53 | 35.78299 | -98.36829 | 31755 ft | 382 kts | 271° |
| 2026-05-04 14:54 | 35.77893 | -98.43284 | 31759 ft | 380 kts | 271° |
| 2026-05-04 14:54 | 35.77480 | -98.49781 | 31783 ft | 381 kts | 271° |
| 2026-05-04 14:55 | 35.77065 | -98.56278 | 31796 ft | 381 kts | 271° |
| 2026-05-04 14:55 | 35.76645 | -98.62777 | 31804 ft | 381 kts | 271° |
| 2026-05-04 14:56 | 35.76222 | -98.69275 | 31799 ft | 381 kts | 271° |
| 2026-05-04 14:56 | 35.75799 | -98.75722 | 31797 ft | 380 kts | 270° |
| 2026-05-04 14:57 | 35.75369 | -98.82206 | 31754 ft | 380 kts | 270° |
| 2026-05-04 14:57 | 35.74937 | -98.88683 | 31752 ft | 380 kts | 270° |
| 2026-05-04 14:58 | 35.74501 | -98.95166 | 31752 ft | 380 kts | 270° |
| 2026-05-04 14:58 | 35.74065 | -99.01602 | 31752 ft | 380 kts | 270° |
| 2026-05-04 14:59 | 35.73622 | -99.08081 | 31751 ft | 380 kts | 270° |
| 2026-05-04 15:00 | 35.72951 | -99.17808 | 31747 ft | 380 kts | 270° |
| 2026-05-04 15:00 | 35.72498 | -99.24290 | 31742 ft | 380 kts | 270° |
| 2026-05-04 15:01 | 35.71817 | -99.33971 | 31741 ft | 381 kts | 270° |
| 2026-05-04 15:01 | 35.71356 | -99.40455 | 31757 ft | 381 kts | 270° |
| 2026-05-04 15:02 | 35.70891 | -99.46942 | 31730 ft | 381 kts | 269° |
| 2026-05-04 15:02 | 35.70423 | -99.53432 | 31752 ft | 381 kts | 269° |
| 2026-05-04 15:03 | 35.69954 | -99.59878 | 31743 ft | 381 kts | 269° |
| 2026-05-04 15:03 | 35.69479 | -99.66363 | 31733 ft | 381 kts | 269° |
| 2026-05-04 15:04 | 35.69000 | -99.72851 | 31719 ft | 381 kts | 269° |
| 2026-05-04 15:04 | 35.68518 | -99.79341 | 31717 ft | 381 kts | 269° |
| 2026-05-04 15:05 | 35.68032 | -99.85823 | 31708 ft | 380 kts | 269° |
| 2026-05-04 15:05 | 35.67549 | -99.92226 | 31718 ft | 378 kts | 269° |
| 2026-05-04 15:06 | 35.67059 | -99.98672 | 31721 ft | 378 kts | 269° |
| 2026-05-04 15:07 | 35.66319 | -100.08333 | 31718 ft | 378 kts | 269° |
| 2026-05-04 15:07 | 35.65821 | -100.14771 | 31715 ft | 378 kts | 269° |
| 2026-05-04 15:08 | 35.65323 | -100.21159 | 31701 ft | 378 kts | 268° |
| 2026-05-04 15:08 | 35.64820 | -100.27584 | 31710 ft | 377 kts | 268° |
| 2026-05-04 15:09 | 35.64313 | -100.34001 | 31711 ft | 377 kts | 268° |
| 2026-05-04 15:09 | 35.63803 | -100.40421 | 31712 ft | 377 kts | 268° |
| 2026-05-04 15:10 | 35.63034 | -100.50005 | 31720 ft | 377 kts | 268° |
| 2026-05-04 15:11 | 35.62256 | -100.59620 | 31719 ft | 377 kts | 268° |
| 2026-05-04 15:11 | 35.61731 | -100.66047 | 31766 ft | 378 kts | 268° |
| 2026-05-04 15:12 | 35.61207 | -100.72429 | 31800 ft | 378 kts | 268° |
| 2026-05-04 15:12 | 35.60675 | -100.78848 | 31828 ft | 378 kts | 268° |
| 2026-05-04 15:13 | 35.60141 | -100.85268 | 31849 ft | 378 kts | 268° |
| 2026-05-04 15:13 | 35.59603 | -100.91690 | 31868 ft | 378 kts | 268° |
| 2026-05-04 15:14 | 35.59065 | -100.98061 | 31868 ft | 377 kts | 268° |
| 2026-05-04 15:14 | 35.58521 | -101.04475 | 31871 ft | 378 kts | 268° |
| 2026-05-04 15:15 | 35.57973 | -101.10891 | 31865 ft | 378 kts | 268° |
| 2026-05-04 15:15 | 35.57421 | -101.17303 | 31841 ft | 378 kts | 268° |
| 2026-05-04 15:16 | 35.56592 | -101.26877 | 31831 ft | 378 kts | 268° |
| 2026-05-04 15:17 | 35.55751 | -101.36487 | 31841 ft | 377 kts | 268° |
| 2026-05-04 15:17 | 35.54905 | -101.46071 | 31834 ft | 376 kts | 268° |
| 2026-05-04 15:18 | 35.54337 | -101.52459 | 31826 ft | 376 kts | 268° |
| 2026-05-04 15:19 | 35.53483 | -101.61993 | 31801 ft | 376 kts | 267° |
| 2026-05-04 15:19 | 35.52620 | -101.71554 | 31781 ft | 374 kts | 267° |
| 2026-05-04 15:20 | 35.52046 | -101.77881 | 31778 ft | 373 kts | 267° |
| 2026-05-04 15:20 | 35.51472 | -101.84163 | 31780 ft | 373 kts | 267° |
| 2026-05-04 15:21 | 35.50891 | -101.90487 | 31767 ft | 372 kts | 267° |
| 2026-05-04 15:22 | 35.50058 | -101.99971 | 31749 ft | 371 kts | 272° |
| 2026-05-04 15:22 | 35.50594 | -102.09340 | 31760 ft | 367 kts | 275° |
| 2026-05-04 15:23 | 35.50977 | -102.15583 | 31762 ft | 367 kts | 275° |
| 2026-05-04 15:23 | 35.51362 | -102.21824 | 31762 ft | 367 kts | 275° |
| 2026-05-04 15:24 | 35.52121 | -102.34274 | 31777 ft | 367 kts | 275° |
| 2026-05-04 15:25 | 35.52497 | -102.40519 | 31777 ft | 367 kts | 275° |
| 2026-05-04 15:26 | 35.53053 | -102.49873 | 31783 ft | 366 kts | 275° |
| 2026-05-04 15:26 | 35.53603 | -102.59217 | 31783 ft | 366 kts | 275° |
| 2026-05-04 15:27 | 35.54142 | -102.68519 | 31789 ft | 366 kts | 275° |
| 2026-05-04 15:28 | 35.54676 | -102.77861 | 31781 ft | 365 kts | 275° |
| 2026-05-04 15:29 | 35.55203 | -102.87197 | 31797 ft | 365 kts | 275° |
| 2026-05-04 15:30 | 35.56402 | -103.08943 | 31790 ft | 365 kts | 274° |
| 2026-05-04 15:31 | 35.56902 | -103.18238 | 31782 ft | 366 kts | 274° |
| 2026-05-04 15:32 | 35.57726 | -103.33841 | 31786 ft | 366 kts | 274° |
| 2026-05-04 15:34 | 35.58528 | -103.49404 | 31797 ft | 366 kts | 274° |
| 2026-05-04 15:34 | 35.59002 | -103.58810 | 31799 ft | 368 kts | 274° |
| 2026-05-04 15:35 | 35.59468 | -103.68179 | 31806 ft | 368 kts | 274° |
| 2026-05-04 15:36 | 35.59928 | -103.77599 | 31809 ft | 368 kts | 274° |
| 2026-05-04 15:36 | 35.60231 | -103.83876 | 31808 ft | 368 kts | 274° |
| 2026-05-04 15:37 | 35.60531 | -103.90157 | 31804 ft | 368 kts | 274° |
| 2026-05-04 15:37 | 35.60825 | -103.96392 | 31808 ft | 368 kts | 274° |
| 2026-05-04 15:38 | 35.61118 | -104.02662 | 31806 ft | 368 kts | 274° |
| 2026-05-04 15:38 | 35.61407 | -104.08939 | 31805 ft | 368 kts | 274° |
| 2026-05-04 15:39 | 35.61694 | -104.15215 | 31813 ft | 368 kts | 274° |
| 2026-05-04 15:40 | 35.62116 | -104.24585 | 31797 ft | 369 kts | 274° |
| 2026-05-04 15:40 | 35.62395 | -104.30883 | 31803 ft | 369 kts | 274° |
| 2026-05-04 15:41 | 35.62671 | -104.37181 | 31810 ft | 369 kts | 274° |
| 2026-05-04 15:41 | 35.62943 | -104.43471 | 31833 ft | 368 kts | 273° |
| 2026-05-04 15:42 | 35.63210 | -104.49716 | 31830 ft | 369 kts | 273° |
| 2026-05-04 15:42 | 35.63476 | -104.56009 | 31814 ft | 368 kts | 273° |
| 2026-05-04 15:43 | 35.63738 | -104.62298 | 31808 ft | 369 kts | 273° |
| 2026-05-04 15:43 | 35.63998 | -104.68598 | 31808 ft | 369 kts | 273° |
| 2026-05-04 15:44 | 35.64252 | -104.74848 | 31812 ft | 369 kts | 273° |
| 2026-05-04 15:44 | 35.64505 | -104.81147 | 31811 ft | 369 kts | 273° |
| 2026-05-04 15:45 | 35.64756 | -104.87442 | 31820 ft | 369 kts | 273° |
| 2026-05-04 15:45 | 35.65003 | -104.93739 | 31797 ft | 368 kts | 273° |
| 2026-05-04 15:46 | 35.65248 | -105.00037 | 32046 ft | 369 kts | 273° |
| 2026-05-04 15:46 | 35.65488 | -105.06291 | 32073 ft | 369 kts | 273° |
| 2026-05-04 15:47 | 35.65725 | -105.12589 | 32070 ft | 369 kts | 272° |
| 2026-05-04 15:47 | 35.65499 | -105.18889 | 32071 ft | 369 kts | 269° |
| 2026-05-04 15:48 | 35.65273 | -105.25196 | 32070 ft | 369 kts | 269° |
| 2026-05-04 15:48 | 35.64954 | -105.34630 | 32001 ft | 371 kts | 269° |
| 2026-05-04 15:49 | 35.64736 | -105.40977 | 31963 ft | 371 kts | 269° |
| 2026-05-04 15:49 | 35.64516 | -105.47314 | 31909 ft | 371 kts | 268° |
| 2026-05-04 15:50 | 35.64293 | -105.53649 | 31915 ft | 371 kts | 269° |
| 2026-05-04 15:50 | 35.64069 | -105.59939 | 31867 ft | 371 kts | 268° |
| 2026-05-04 15:51 | 35.63838 | -105.66270 | 31904 ft | 369 kts | 268° |
| 2026-05-04 15:51 | 35.63608 | -105.72536 | 31873 ft | 366 kts | 269° |
| 2026-05-04 15:52 | 35.63376 | -105.78747 | 31874 ft | 366 kts | 268° |
| 2026-05-04 15:52 | 35.63139 | -105.85009 | 31875 ft | 367 kts | 268° |
| 2026-05-04 15:53 | 35.62899 | -105.91259 | 31875 ft | 366 kts | 268° |
| 2026-05-04 15:53 | 35.62778 | -105.94384 | 32079 ft | 366 kts | 268° |
| 2026-05-04 15:53 | 35.62656 | -105.97502 | 32106 ft | 366 kts | 268° |
| 2026-05-04 15:54 | 35.62412 | -106.03710 | 32113 ft | 365 kts | 268° |
| 2026-05-04 15:54 | 35.62163 | -106.09944 | 32108 ft | 365 kts | 268° |
| 2026-05-04 15:55 | 35.61912 | -106.16186 | 32117 ft | 366 kts | 268° |
| 2026-05-04 15:55 | 35.61653 | -106.22434 | 32091 ft | 365 kts | 268° |
| 2026-05-04 15:56 | 35.61397 | -106.28632 | 32037 ft | 366 kts | 268° |
| 2026-05-04 15:56 | 35.61136 | -106.34865 | 32016 ft | 366 kts | 268° |
| 2026-05-04 15:57 | 35.60871 | -106.41096 | 31960 ft | 365 kts | 268° |
| 2026-05-04 15:57 | 35.60604 | -106.47316 | 31935 ft | 363 kts | 268° |
| 2026-05-04 15:58 | 35.60339 | -106.53448 | 31890 ft | 362 kts | 268° |
| 2026-05-04 15:58 | 35.60063 | -106.59617 | 31883 ft | 362 kts | 268° |
| 2026-05-04 15:59 | 35.59779 | -106.65802 | 31909 ft | 363 kts | 267° |
| 2026-05-04 15:59 | 35.59494 | -106.71993 | 31910 ft | 362 kts | 267° |
| 2026-05-04 16:00 | 35.59208 | -106.78171 | 31877 ft | 362 kts | 267° |
| 2026-05-04 16:00 | 35.58918 | -106.84308 | 31919 ft | 361 kts | 267° |
| 2026-05-04 16:01 | 35.58625 | -106.90472 | 31900 ft | 362 kts | 267° |
| 2026-05-04 16:01 | 35.58328 | -106.96645 | 31907 ft | 362 kts | 267° |
| 2026-05-04 16:02 | 35.58027 | -107.02821 | 31905 ft | 362 kts | 267° |
| 2026-05-04 16:03 | 35.57571 | -107.12082 | 31914 ft | 365 kts | 266° |
| 2026-05-04 16:03 | 35.57260 | -107.18304 | 31907 ft | 365 kts | 266° |
| 2026-05-04 16:04 | 35.56946 | -107.24537 | 31907 ft | 367 kts | 266° |
| 2026-05-04 16:04 | 35.56469 | -107.33886 | 31896 ft | 365 kts | 266° |
| 2026-05-04 16:05 | 35.56149 | -107.40076 | 31902 ft | 366 kts | 266° |
| 2026-05-04 16:06 | 35.55660 | -107.49406 | 31897 ft | 365 kts | 266° |
| 2026-05-04 16:07 | 35.54997 | -107.61844 | 31883 ft | 365 kts | 266° |
| 2026-05-04 16:08 | 35.54324 | -107.74246 | 31886 ft | 365 kts | 266° |
| 2026-05-04 16:09 | 35.53459 | -107.89849 | 31860 ft | 366 kts | 266° |
| 2026-05-04 16:10 | 35.52755 | -108.02270 | 31848 ft | 366 kts | 265° |
| 2026-05-04 16:11 | 35.52036 | -108.14742 | 31853 ft | 367 kts | 265° |
| 2026-05-04 16:12 | 35.50935 | -108.33421 | 31840 ft | 366 kts | 265° |
| 2026-05-04 16:13 | 35.50187 | -108.45849 | 31824 ft | 367 kts | 265° |
| 2026-05-04 16:14 | 35.49421 | -108.58354 | 31823 ft | 367 kts | 265° |
| 2026-05-04 16:16 | 35.48447 | -108.73946 | 31807 ft | 367 kts | 265° |
| 2026-05-04 16:16 | 35.47853 | -108.83319 | 32109 ft | 367 kts | 265° |
| 2026-05-04 16:17 | 35.47681 | -108.89578 | 32104 ft | 368 kts | 269° |
| 2026-05-04 16:18 | 35.47773 | -109.02086 | 32023 ft | 366 kts | 268° |
| 2026-05-04 16:19 | 35.47827 | -109.17654 | 32013 ft | 366 kts | 268° |
| 2026-05-04 16:20 | 35.47860 | -109.32218 | 31962 ft | 366 kts | 268° |
| 2026-05-04 16:22 | 35.47875 | -109.47784 | 31888 ft | 366 kts | 268° |
| 2026-05-04 16:23 | 35.47865 | -109.67593 | 31891 ft | 367 kts | 268° |
| 2026-05-04 16:25 | 35.47828 | -109.85346 | 31885 ft | 370 kts | 267° |
| 2026-05-04 16:26 | 35.47747 | -110.07375 | 31894 ft | 370 kts | 267° |
| 2026-05-04 16:28 | 35.47664 | -110.23175 | 31894 ft | 371 kts | 266° |
| 2026-05-04 16:29 | 35.47514 | -110.45227 | 31888 ft | 369 kts | 266° |
| 2026-05-04 16:31 | 35.47383 | -110.60918 | 31891 ft | 369 kts | 266° |
| 2026-05-04 16:32 | 35.47198 | -110.79803 | 31886 ft | 369 kts | 266° |
| 2026-05-04 16:33 | 35.47130 | -110.86064 | 31719 ft | 370 kts | 265° |
| 2026-05-04 16:33 | 35.47059 | -110.92379 | 31521 ft | 371 kts | 265° |
| 2026-05-04 16:34 | 35.46983 | -110.98713 | 31337 ft | 372 kts | 265° |
| 2026-05-04 16:34 | 35.46944 | -111.01886 | 31237 ft | 373 kts | 265° |
| 2026-05-04 16:35 | 35.46822 | -111.11440 | 30950 ft | 374 kts | 265° |
| 2026-05-04 16:35 | 35.46692 | -111.21030 | 30659 ft | 379 kts | 265° |
| 2026-05-04 16:36 | 35.46552 | -111.30750 | 30381 ft | 381 kts | 264° |
| 2026-05-04 16:37 | 35.46454 | -111.37257 | 30200 ft | 382 kts | 265° |
| 2026-05-04 16:37 | 35.46404 | -111.40515 | 30099 ft | 382 kts | 265° |
| 2026-05-04 16:37 | 35.46301 | -111.47042 | 29913 ft | 383 kts | 264° |
| 2026-05-04 16:38 | 35.46194 | -111.53537 | 29881 ft | 384 kts | 264° |
| 2026-05-04 16:39 | 35.45913 | -111.69956 | 29887 ft | 385 kts | 264° |
| 2026-05-04 16:40 | 35.45672 | -111.83100 | 29908 ft | 390 kts | 264° |
| 2026-05-04 16:41 | 35.47329 | -111.99842 | 29982 ft | 398 kts | 272° |
| 2026-05-04 16:43 | 35.49421 | -112.16575 | 30015 ft | 399 kts | 272° |
| 2026-05-04 16:43 | 35.50669 | -112.26647 | 29997 ft | 397 kts | 272° |
| 2026-05-04 16:45 | 35.53128 | -112.46694 | 29913 ft | 397 kts | 271° |
| 2026-05-04 16:46 | 35.55143 | -112.63346 | 29864 ft | 392 kts | 271° |
| 2026-05-04 16:47 | 35.56725 | -112.76554 | 29859 ft | 392 kts | 271° |
| 2026-05-04 16:48 | 35.58302 | -112.89844 | 29855 ft | 394 kts | 271° |
| 2026-05-04 16:49 | 35.59860 | -113.03114 | 29853 ft | 394 kts | 271° |
| 2026-05-04 16:50 | 35.61407 | -113.16415 | 29843 ft | 392 kts | 270° |
| 2026-05-04 16:51 | 35.62171 | -113.23037 | 29529 ft | 389 kts | 270° |
| 2026-05-04 16:51 | 35.62544 | -113.26267 | 28806 ft | 385 kts | 270° |
| 2026-05-04 16:51 | 35.63283 | -113.32711 | 27299 ft | 379 kts | 271° |
| 2026-05-04 16:52 | 35.64035 | -113.39332 | 25731 ft | 402 kts | 272° |
| 2026-05-04 16:52 | 35.64425 | -113.42749 | 25093 ft | 405 kts | 273° |
| 2026-05-04 16:53 | 35.65237 | -113.49616 | 23822 ft | 408 kts | 277° |
| 2026-05-04 16:53 | 35.66944 | -113.59806 | 22444 ft | 406 kts | 277° |
| 2026-05-04 16:54 | 35.67498 | -113.63195 | 22030 ft | 398 kts | 277° |
| 2026-05-04 16:55 | 35.69543 | -113.75820 | 20639 ft | 357 kts | 276° |
| 2026-05-04 16:55 | 35.70491 | -113.81701 | 19922 ft | 344 kts | 276° |
| 2026-05-04 16:56 | 35.71396 | -113.87334 | 19254 ft | 333 kts | 276° |
| 2026-05-04 16:56 | 35.72711 | -113.95560 | 18277 ft | 322 kts | 276° |
| 2026-05-04 16:57 | 35.73141 | -113.98246 | 17937 ft | 318 kts | 276° |
| 2026-05-04 16:57 | 35.73981 | -114.03526 | 17249 ft | 310 kts | 276° |
| 2026-05-04 16:58 | 35.75190 | -114.11148 | 16323 ft | 298 kts | 276° |
| 2026-05-04 16:58 | 35.75583 | -114.13632 | 16034 ft | 293 kts | 276° |
| 2026-05-04 16:59 | 35.77199 | -114.18283 | 15459 ft | 302 kts | 292° |
| 2026-05-04 17:00 | 35.81193 | -114.27390 | 14328 ft | 301 kts | 293° |
| 2026-05-04 17:00 | 35.84236 | -114.34081 | 13417 ft | 306 kts | 301° |
| 2026-05-04 17:01 | 35.86887 | -114.38185 | 12727 ft | 303 kts | 302° |
| 2026-05-04 17:01 | 35.89473 | -114.42313 | 12156 ft | 305 kts | 303° |
| 2026-05-04 17:02 | 35.92028 | -114.46449 | 11554 ft | 305 kts | 303° |
| 2026-05-04 17:02 | 35.94587 | -114.50608 | 10964 ft | 304 kts | 303° |
| 2026-05-04 17:03 | 35.95864 | -114.52684 | 10666 ft | 304 kts | 303° |
| 2026-05-04 17:03 | 35.97145 | -114.54758 | 10351 ft | 303 kts | 303° |
| 2026-05-04 17:03 | 35.99681 | -114.58872 | 9765 ft | 299 kts | 302° |
| 2026-05-04 17:04 | 36.02168 | -114.62921 | 9147 ft | 293 kts | 303° |
| 2026-05-04 17:04 | 36.04486 | -114.66944 | 8571 ft | 286 kts | 296° |
| 2026-05-04 17:05 | 36.06548 | -114.71135 | 8041 ft | 280 kts | 298° |
| 2026-05-04 17:05 | 36.07341 | -114.75464 | 7598 ft | 257 kts | 264° |
| 2026-05-04 17:06 | 36.07368 | -114.79884 | 6960 ft | 255 kts | 265° |
| 2026-05-04 17:06 | 36.07377 | -114.82024 | 6703 ft | 244 kts | 265° |
| 2026-05-04 17:07 | 36.07380 | -114.86043 | 6200 ft | 229 kts | 265° |
| 2026-05-04 17:07 | 36.07381 | -114.87364 | 5990 ft | 226 kts | 264° |
| 2026-05-04 17:07 | 36.07380 | -114.89880 | 5610 ft | 216 kts | 265° |
| 2026-05-04 17:07 | 36.07378 | -114.91707 | 5314 ft | 208 kts | 265° |
| 2026-05-04 17:08 | 36.07379 | -114.93453 | 5074 ft | 200 kts | 264° |
| 2026-05-04 17:08 | 36.07375 | -114.96823 | 4562 ft | 192 kts | 264° |
| 2026-05-04 17:08 | 36.07373 | -114.98445 | 4332 ft | 183 kts | 265° |
| 2026-05-04 17:09 | 36.07375 | -114.99931 | 4104 ft | 165 kts | 264° |
| 2026-05-04 17:09 | 36.07376 | -115.01308 | 3909 ft | 152 kts | 263° |
| 2026-05-04 17:09 | 36.07372 | -115.02573 | 3690 ft | 143 kts | 265° |
| 2026-05-04 17:10 | 36.07370 | -115.04988 | 3332 ft | 141 kts | 264° |
| 2026-05-04 17:10 | 36.07364 | -115.08604 | 2750 ft | 146 kts | 265° |
| 2026-05-04 17:11 | 36.07359 | -115.09876 | 2572 ft | 150 kts | 268° |
| 2026-05-04 17:11 | 36.07358 | -115.11153 | 2387 ft | 147 kts | 267° |
| 2026-05-04 17:11 | 36.07363 | -115.13630 | 2086 ft | 122 kts | 270° |
| 2026-05-04 17:12 | 36.07365 | -115.14361 | 2118 ft | 57 kts | 269° |
| 2026-05-04 17:12 | 36.07433 | -115.14969 | 2130 ft | 25 kts | 298° |
| 2026-05-04 17:13 | 36.07624 | -115.15186 | 2135 ft | 11 kts | 334° |
| 2026-05-04 17:14 | 36.07931 | -115.15362 | 2139 ft | 25 kts | 335° |
| 2026-05-04 17:14 | 36.08080 | -115.15446 | 2136 ft | 16 kts | 338° |
| 2026-05-04 17:14 | 36.08118 | -115.15330 | 2129 ft | 11 kts | 111° |
| 2026-05-04 17:15 | 36.08094 | -115.15221 | 2127 ft | 15 kts | 103° |
| 2026-05-04 17:15 | 36.08205 | -115.14992 | 2118 ft | 6 kts | 46° |
| 2026-05-04 17:16 | 36.08228 | -115.14956 | 2114 ft | 0 kts | 59° |
| 2026-05-04 17:16 | 36.08269 | -115.14959 | 2117 ft | 3 kts | 352° |
| 2026-05-04 17:17 | 36.08285 | -115.14949 | 2118 ft | 6 kts | 45° |
| 2026-05-04 17:17 | 36.08304 | -115.14905 | 2118 ft | 0 kts | 65° |